sensor_id;sensor_type;location;lat;lon;timestamp;P1;P2;P0
66149;PMS5003;52952;50.904;20.648;2022-07-23T00:00:08;44;36;22
66149;PMS5003;52952;50.904;20.648;2022-07-23T00:07:18;39;34;23
66149;PMS5003;52952;50.904;20.648;2022-07-23T00:14:06;39;34;23
66149;PMS5003;52952;50.904;20.648;2022-07-23T00:21:05;39;34;23
66149;PMS5003;52952;50.904;20.648;2022-07-23T00:28:07;39;34;23
66149;PMS5003;52952;50.904;20.648;2022-07-23T00:35:20;46;38;23
66149;PMS5003;52952;50.904;20.648;2022-07-23T00:42:16;46;38;23
66149;PMS5003;52952;50.904;20.648;2022-07-23T00:49:03;46;38;23
66149;PMS5003;52952;50.904;20.648;2022-07-23T00:56:17;46;38;23
66149;PMS5003;52952;50.904;20.648;2022-07-23T01:00:06;46;38;23
66149;PMS5003;52952;50.904;20.648;2022-07-23T01:07:15;42;36;24
66149;PMS5003;52952;50.904;20.648;2022-07-23T01:14:31;42;36;24
66149;PMS5003;52952;50.904;20.648;2022-07-23T01:21:15;42;36;24
66149;PMS5003;52952;50.904;20.648;2022-07-23T01:28:18;42;36;24
66149;PMS5003;52952;50.904;20.648;2022-07-23T01:35:22;41;35;24
66149;PMS5003;52952;50.904;20.648;2022-07-23T01:42:02;41;35;24
66149;PMS5003;52952;50.904;20.648;2022-07-23T01:49:18;41;35;24
66149;PMS5003;52952;50.904;20.648;2022-07-23T01:56:15;41;35;24
66149;PMS5003;52952;50.904;20.648;2022-07-23T02:00:20;41;35;24
66149;PMS5003;52952;50.904;20.648;2022-07-23T02:07:06;41;35;23
66149;PMS5003;52952;50.904;20.648;2022-07-23T02:14:08;41;35;23
66149;PMS5003;52952;50.904;20.648;2022-07-23T02:21:14;41;35;23
66149;PMS5003;52952;50.904;20.648;2022-07-23T02:28:17;41;35;23
66149;PMS5003;52952;50.904;20.648;2022-07-23T02:35:11;41;36;22
66149;PMS5003;52952;50.904;20.648;2022-07-23T02:42:18;41;36;22
66149;PMS5003;52952;50.904;20.648;2022-07-23T02:49:06;41;36;22
66149;PMS5003;52952;50.904;20.648;2022-07-23T02:56:15;41;36;22
66149;PMS5003;52952;50.904;20.648;2022-07-23T03:00:17;41;36;22
66149;PMS5003;52952;50.904;20.648;2022-07-23T03:07:16;40;32;21
66149;PMS5003;52952;50.904;20.648;2022-07-23T03:14:16;40;32;21
66149;PMS5003;52952;50.904;20.648;2022-07-23T03:21:16;40;32;21
66149;PMS5003;52952;50.904;20.648;2022-07-23T03:28:05;40;32;21
66149;PMS5003;52952;50.904;20.648;2022-07-23T03:35:09;30;30;20
66149;PMS5003;52952;50.904;20.648;2022-07-23T03:42:06;30;30;20
66149;PMS5003;52952;50.904;20.648;2022-07-23T03:49:03;30;30;20
66149;PMS5003;52952;50.904;20.648;2022-07-23T03:56:19;30;30;20
66149;PMS5003;52952;50.904;20.648;2022-07-23T04:00:09;30;30;20
66149;PMS5003;52952;50.904;20.648;2022-07-23T04:07:19;36;33;21
66149;PMS5003;52952;50.904;20.648;2022-07-23T04:14:04;36;33;21
66149;PMS5003;52952;50.904;20.648;2022-07-23T04:21:02;36;33;21
66149;PMS5003;52952;50.904;20.648;2022-07-23T04:28:06;36;33;21
66149;PMS5003;52952;50.904;20.648;2022-07-23T04:35:20;28;27;20
66149;PMS5003;52952;50.904;20.648;2022-07-23T04:42:02;28;27;20
66149;PMS5003;52952;50.904;20.648;2022-07-23T04:49:03;28;27;20
66149;PMS5003;52952;50.904;20.648;2022-07-23T04:56:15;28;27;20
66149;PMS5003;52952;50.904;20.648;2022-07-23T05:00:19;28;27;20
66149;PMS5003;52952;50.904;20.648;2022-07-23T05:07:17;32;31;20
66149;PMS5003;52952;50.904;20.648;2022-07-23T05:14:16;32;31;20
66149;PMS5003;52952;50.904;20.648;2022-07-23T05:21:17;32;31;20
66149;PMS5003;52952;50.904;20.648;2022-07-23T05:28:17;32;31;20
66149;PMS5003;52952;50.904;20.648;2022-07-23T05:42:07;30;29;21
66149;PMS5003;52952;50.904;20.648;2022-07-23T05:49:18;30;29;21
66149;PMS5003;52952;50.904;20.648;2022-07-23T05:56:04;30;29;21
66149;PMS5003;52952;50.904;20.648;2022-07-23T06:00:12;30;29;21
66149;PMS5003;52952;50.904;20.648;2022-07-23T06:07:03;34;31;22
66149;PMS5003;52952;50.904;20.648;2022-07-23T06:14:18;34;31;22
66149;PMS5003;52952;50.904;20.648;2022-07-23T06:21:17;34;31;22
66149;PMS5003;52952;50.904;20.648;2022-07-23T06:28:16;34;31;22
66149;PMS5003;52952;50.904;20.648;2022-07-23T06:42:02;26;26;20
66149;PMS5003;52952;50.904;20.648;2022-07-23T06:49:18;26;26;20
66149;PMS5003;52952;50.904;20.648;2022-07-23T06:56:16;26;26;20
66149;PMS5003;52952;50.904;20.648;2022-07-23T07:00:13;26;26;20
66149;PMS5003;52952;50.904;20.648;2022-07-23T07:07:17;25;24;19
66149;PMS5003;52952;50.904;20.648;2022-07-23T07:14:04;25;24;19
66149;PMS5003;52952;50.904;20.648;2022-07-23T07:21:17;25;24;19
66149;PMS5003;52952;50.904;20.648;2022-07-23T07:28:05;25;24;19
66149;PMS5003;52952;50.904;20.648;2022-07-23T07:35:06;33;31;22
66149;PMS5003;52952;50.904;20.648;2022-07-23T07:42:16;33;31;22
66149;PMS5003;52952;50.904;20.648;2022-07-23T07:49:18;33;31;22
66149;PMS5003;52952;50.904;20.648;2022-07-23T07:56:02;33;31;22
66149;PMS5003;52952;50.904;20.648;2022-07-23T08:00:04;33;31;22
66149;PMS5003;52952;50.904;20.648;2022-07-23T08:14:04;35;32;22
66149;PMS5003;52952;50.904;20.648;2022-07-23T08:21:14;35;32;22
66149;PMS5003;52952;50.904;20.648;2022-07-23T08:28:05;35;32;22
66149;PMS5003;52952;50.904;20.648;2022-07-23T08:42:04;28;28;20
66149;PMS5003;52952;50.904;20.648;2022-07-23T08:49:17;28;28;20
66149;PMS5003;52952;50.904;20.648;2022-07-23T08:56:16;28;28;20
66149;PMS5003;52952;50.904;20.648;2022-07-23T09:00:02;28;28;20
66149;PMS5003;52952;50.904;20.648;2022-07-23T09:14:14;26;26;19
66149;PMS5003;52952;50.904;20.648;2022-07-23T09:21:39;26;26;19
66149;PMS5003;52952;50.904;20.648;2022-07-23T09:28:17;26;26;19
66149;PMS5003;52952;50.904;20.648;2022-07-23T09:35:03;26;26;19
66149;PMS5003;52952;50.904;20.648;2022-07-23T09:42:20;29;28;20
66149;PMS5003;52952;50.904;20.648;2022-07-23T09:49:20;29;28;20
66149;PMS5003;52952;50.904;20.648;2022-07-23T09:56:21;29;28;20
66149;PMS5003;52952;50.904;20.648;2022-07-23T10:00:24;29;28;20
66149;PMS5003;52952;50.904;20.648;2022-07-23T10:14:20;27;26;19
66149;PMS5003;52952;50.904;20.648;2022-07-23T10:21:49;27;26;19
66149;PMS5003;52952;50.904;20.648;2022-07-23T10:35:04;27;26;19
66149;PMS5003;52952;50.904;20.648;2022-07-23T10:42:14;32;31;20
66149;PMS5003;52952;50.904;20.648;2022-07-23T10:49:46;32;31;20
66149;PMS5003;52952;50.904;20.648;2022-07-23T10:56:15;32;31;20
66149;PMS5003;52952;50.904;20.648;2022-07-23T11:00:23;32;31;20
66149;PMS5003;52952;50.904;20.648;2022-07-23T11:14:06;29;29;19
66149;PMS5003;52952;50.904;20.648;2022-07-23T11:21:48;29;29;19
66149;PMS5003;52952;50.904;20.648;2022-07-23T11:28:28;29;29;19
66149;PMS5003;52952;50.904;20.648;2022-07-23T11:35:43;29;29;19
66149;PMS5003;52952;50.904;20.648;2022-07-23T11:42:19;28;28;19
66149;PMS5003;52952;50.904;20.648;2022-07-23T11:49:04;28;28;19
66149;PMS5003;52952;50.904;20.648;2022-07-23T11:56:18;28;28;19
66149;PMS5003;52952;50.904;20.648;2022-07-23T12:00:27;28;28;19
66149;PMS5003;52952;50.904;20.648;2022-07-23T12:14:02;29;28;20
66149;PMS5003;52952;50.904;20.648;2022-07-23T12:21:04;29;28;20
66149;PMS5003;52952;50.904;20.648;2022-07-23T12:28:12;29;28;20
66149;PMS5003;52952;50.904;20.648;2022-07-23T12:35:38;29;28;20
66149;PMS5003;52952;50.904;20.648;2022-07-23T12:42:25;29;28;20
66149;PMS5003;52952;50.904;20.648;2022-07-23T12:49:04;29;28;20
66149;PMS5003;52952;50.904;20.648;2022-07-23T12:56:13;29;28;20
66149;PMS5003;52952;50.904;20.648;2022-07-23T13:00:20;29;28;20
66149;PMS5003;52952;50.904;20.648;2022-07-23T13:14:08;29;27;20
66149;PMS5003;52952;50.904;20.648;2022-07-23T13:21:18;29;27;20
66149;PMS5003;52952;50.904;20.648;2022-07-23T13:28:22;29;27;20
66149;PMS5003;52952;50.904;20.648;2022-07-23T13:35:05;29;27;20
66149;PMS5003;52952;50.904;20.648;2022-07-23T13:42:07;27;27;20
66149;PMS5003;52952;50.904;20.648;2022-07-23T13:49:05;27;27;20
66149;PMS5003;52952;50.904;20.648;2022-07-23T13:56:17;27;27;20
66149;PMS5003;52952;50.904;20.648;2022-07-23T14:00:26;27;27;20
66149;PMS5003;52952;50.904;20.648;2022-07-23T14:07:15;27;27;20
66149;PMS5003;52952;50.904;20.648;2022-07-23T14:14:16;30;30;19
66149;PMS5003;52952;50.904;20.648;2022-07-23T14:21:18;30;30;19
66149;PMS5003;52952;50.904;20.648;2022-07-23T14:28:17;30;30;19
66149;PMS5003;52952;50.904;20.648;2022-07-23T14:35:24;30;30;19
66149;PMS5003;52952;50.904;20.648;2022-07-23T14:42:03;29;27;19
66149;PMS5003;52952;50.904;20.648;2022-07-23T14:49:21;29;27;19
66149;PMS5003;52952;50.904;20.648;2022-07-23T14:56:18;29;27;19
66149;PMS5003;52952;50.904;20.648;2022-07-23T15:00:08;29;27;19
66149;PMS5003;52952;50.904;20.648;2022-07-23T15:07:14;29;27;19
66149;PMS5003;52952;50.904;20.648;2022-07-23T15:14:16;25;25;19
66149;PMS5003;52952;50.904;20.648;2022-07-23T15:21:18;25;25;19
66149;PMS5003;52952;50.904;20.648;2022-07-23T15:28:17;25;25;19
66149;PMS5003;52952;50.904;20.648;2022-07-23T15:35:22;25;25;19
66149;PMS5003;52952;50.904;20.648;2022-07-23T15:42:19;27;26;20
66149;PMS5003;52952;50.904;20.648;2022-07-23T15:49:19;27;26;20
66149;PMS5003;52952;50.904;20.648;2022-07-23T15:56:17;27;26;20
66149;PMS5003;52952;50.904;20.648;2022-07-23T16:00:20;27;26;20
66149;PMS5003;52952;50.904;20.648;2022-07-23T16:07:03;27;26;20
66149;PMS5003;52952;50.904;20.648;2022-07-23T16:14:17;20;19;15
66149;PMS5003;52952;50.904;20.648;2022-07-23T16:21:04;20;19;15
66149;PMS5003;52952;50.904;20.648;2022-07-23T16:28:06;20;19;15
66149;PMS5003;52952;50.904;20.648;2022-07-23T16:35:22;20;19;15
66149;PMS5003;52952;50.904;20.648;2022-07-23T16:42:02;17;17;12
66149;PMS5003;52952;50.904;20.648;2022-07-23T16:49:02;17;17;12
66149;PMS5003;52952;50.904;20.648;2022-07-23T16:56:05;17;17;12
66149;PMS5003;52952;50.904;20.648;2022-07-23T17:00:11;17;17;12
66149;PMS5003;52952;50.904;20.648;2022-07-23T17:07:21;17;17;12
66149;PMS5003;52952;50.904;20.648;2022-07-23T17:14:02;15;13;10
66149;PMS5003;52952;50.904;20.648;2022-07-23T17:21:15;15;13;10
66149;PMS5003;52952;50.904;20.648;2022-07-23T17:28:22;15;13;10
66149;PMS5003;52952;50.904;20.648;2022-07-23T17:35:05;15;13;10
66149;PMS5003;52952;50.904;20.648;2022-07-23T17:42:14;14;14;10
66149;PMS5003;52952;50.904;20.648;2022-07-23T17:49:02;14;14;10
66149;PMS5003;52952;50.904;20.648;2022-07-23T17:56:06;14;14;10
66149;PMS5003;52952;50.904;20.648;2022-07-23T18:00:04;14;14;10
66149;PMS5003;52952;50.904;20.648;2022-07-23T18:07:16;14;14;10
66149;PMS5003;52952;50.904;20.648;2022-07-23T18:14:03;14;13;10
66149;PMS5003;52952;50.904;20.648;2022-07-23T18:21:21;14;13;10
66149;PMS5003;52952;50.904;20.648;2022-07-23T18:28:02;14;13;10
66149;PMS5003;52952;50.904;20.648;2022-07-23T18:35:19;14;13;10
66149;PMS5003;52952;50.904;20.648;2022-07-23T18:49:05;45;38;22
66149;PMS5003;52952;50.904;20.648;2022-07-23T18:56:14;45;38;22
66149;PMS5003;52952;50.904;20.648;2022-07-23T19:00:21;45;38;22
66149;PMS5003;52952;50.904;20.648;2022-07-23T19:07:14;45;38;22
66149;PMS5003;52952;50.904;20.648;2022-07-23T19:21:16;21;18;13
66149;PMS5003;52952;50.904;20.648;2022-07-23T19:28:02;21;18;13
66149;PMS5003;52952;50.904;20.648;2022-07-23T19:35:21;21;18;13
66149;PMS5003;52952;50.904;20.648;2022-07-23T19:49:05;22;21;14
66149;PMS5003;52952;50.904;20.648;2022-07-23T19:56:02;22;21;14
66149;PMS5003;52952;50.904;20.648;2022-07-23T20:00:17;22;21;14
66149;PMS5003;52952;50.904;20.648;2022-07-23T20:07:02;22;21;14
66149;PMS5003;52952;50.904;20.648;2022-07-23T20:21:14;23;22;15
66149;PMS5003;52952;50.904;20.648;2022-07-23T20:28:02;23;22;15
66149;PMS5003;52952;50.904;20.648;2022-07-23T20:35:04;23;22;15
66149;PMS5003;52952;50.904;20.648;2022-07-23T20:49:02;21;20;13
66149;PMS5003;52952;50.904;20.648;2022-07-23T20:56:03;21;20;13
66149;PMS5003;52952;50.904;20.648;2022-07-23T21:00:20;21;20;13
66149;PMS5003;52952;50.904;20.648;2022-07-23T21:07:16;21;20;13
66149;PMS5003;52952;50.904;20.648;2022-07-23T21:21:13;22;21;14
66149;PMS5003;52952;50.904;20.648;2022-07-23T21:28:02;22;21;14
66149;PMS5003;52952;50.904;20.648;2022-07-23T21:35:07;22;21;14
66149;PMS5003;52952;50.904;20.648;2022-07-23T21:49:19;32;30;19
66149;PMS5003;52952;50.904;20.648;2022-07-23T21:56:08;32;30;19
66149;PMS5003;52952;50.904;20.648;2022-07-23T22:00:34;32;30;19
66149;PMS5003;52952;50.904;20.648;2022-07-23T22:07:15;32;30;19
66149;PMS5003;52952;50.904;20.648;2022-07-23T22:14:16;41;35;20
66149;PMS5003;52952;50.904;20.648;2022-07-23T22:21:14;41;35;20
66149;PMS5003;52952;50.904;20.648;2022-07-23T22:28:15;41;35;20
66149;PMS5003;52952;50.904;20.648;2022-07-23T22:35:07;38;33;21
66149;PMS5003;52952;50.904;20.648;2022-07-23T22:42:17;38;33;21
66149;PMS5003;52952;50.904;20.648;2022-07-23T22:49:03;38;33;21
66149;PMS5003;52952;50.904;20.648;2022-07-23T22:56:06;38;33;21
66149;PMS5003;52952;50.904;20.648;2022-07-23T23:07:16;40;35;21
66149;PMS5003;52952;50.904;20.648;2022-07-23T23:14:18;40;35;21
66149;PMS5003;52952;50.904;20.648;2022-07-23T23:21:18;40;35;21
66149;PMS5003;52952;50.904;20.648;2022-07-23T23:28:02;40;35;21
66149;PMS5003;52952;50.904;20.648;2022-07-23T23:35:04;31;29;19
66149;PMS5003;52952;50.904;20.648;2022-07-23T23:42:16;31;29;19
66149;PMS5003;52952;50.904;20.648;2022-07-23T23:49:02;31;29;19
66149;PMS5003;52952;50.904;20.648;2022-07-23T23:56:14;31;29;19
